หน้าหลัก
METAR-TAF:

METAR-TAF

ท่าอากาศยาน :

แอดดิสอาบาบา, เอธิโอเปีย

ละติจูด: 08-59N, ลองจิจูด: 038-48E, ความสูง: 2355 ม.

การสังเกตสภาพอากาศปัจจุบัน

รายงานได้ทำขึ้นเมื่อ 57 นาทีที่แล้ว ณ เวลา 06:00 UTC
ลม 8 นอตจากตะวันตก/ตะวันตกเฉียงใต้
อุณหภูมิ 16°C
ความชื้น 82%
ความกดอากาศ 1030 hPa
ทัศนวิสัย 10 กม. หรือมากกว่า
มีเมฆเป็นส่วนมากเว้นเป็นระยะที่ความสูง 2400 ฟุต
มีเมฆเป็นส่วนมากเว้นเป็นระยะที่ความสูง 7000 ฟุต

METAR: HAAB 240600Z 24008KT 9999 BKN024 BKN070 16/13 Q1030

เวลา: 09:57 (06:57 UTC)

การพยากรณ์

รายงานได้ทำขึ้นเมื่อ 3 ชั่วโมงและ 27 นาทีที่แล้ว ณ เวลา 03:30 UTC
การพยากรณ์มีผลตั้งแต่วันที่ 24 ณ เวลา 04 UTC จนถึงวันที่ 25 ณ เวลา 10 UTC
ลม 4 นอตจากตะวันตก
ทัศนวิสัย: 6000 ม.
มีเมฆกระจายเป็นบางส่วนที่ความสูง 1800 ฟุต
มีเมฆกระจายเป็นบางส่วนที่ความสูง 6800 ฟุต
หมอกน้ำค้าง
กำลังกลายเป็น
ตั้งแต่วันที่ 24 ณ เวลา 15 UTC จนถึงวันที่ 24 ณ เวลา 18 UTC
มีเมฆเป็นส่วนมากเว้นเป็นระยะที่ความสูง 1400 ฟุต
มีเมฆเป็นส่วนมากเว้นเป็นระยะที่ความสูง 6500 ฟุต
พายุฝนฟ้าคะนอง, ฝนตกเล็กน้อย,

TAF: HAAB 240330Z 2404/2510 27004KT 6000 BR SCT018 SCT068 BECMG 2415/2418 -TSRA BKN014 BKN065

สังเกตการณ์สภาพอากาศและพยากรณ์อากาศของสนามบินมากกว่า 4000 แห่ง (รายงาน METAR และ TAF).

สถานีที่ดูได้จะแสดงไว้ด้วยจุดสีเหลืองและสีแดงบนแผนที่.

เลื่อนเมาส์ไปเหนือจุดเพื่อดูชื่อสถานี.

แล้วคลิกเพื่อดูสังเกตการณ์และการพยากรณ์สภาพอากาศ.

ในการเปลี่ยนแผนที่: คลิกที่ปุ่มสีเขียวที่มีกากบาทสีดำเพื่อซูมเข้า; ที่ปุ่มสีเขียวที่มีขีดเพื่อซูมออก; หรือที่ลูกศรสีเขียวเพื่อไปยังแผนที่ที่อยู่ติดกัน.


METAR-TAF: